Flight Track Log - Related Links

Times and Time Zones

All times are in EDT time to prevent confusion due to time zone crossing. See the WIG7407 flight status page for this flight to view local times or setup timezone preferences in your user account.

Time Position Orientation Groundspeed Altitude Reporting Facility
EDT Latitude Longitude Course Direction KTS MPH feet Rate Location/Type
Thu 07:51:03 PM 44.6461 -73.4697 189° South 70 81 900  Level Boston Center
Thu 07:52:05 PM 44.6208 -73.4789 194° South 90 104 1,800 968 Climbing Boston Center
Thu 07:53:07 PM 44.5922 -73.4867 191° South 102 117 2,900 1,016 Climbing Boston Center
Thu 07:54:09 PM 44.5667 -73.4867 180° South 96 110 3,900 878 Climbing Boston Center
Thu 07:55:00 PM 44.3968 -73.5026 189° South  Level FlightAware
Thu 07:55:10 PM 44.5406 -73.4947 192° South 95 109 4,700  Level Boston Center
Thu 07:56:00 PM 44.3549 -73.5119 189° South  Level FlightAware
Thu 07:56:12 PM 44.5125 -73.4969 183° South 97 112 5,600  Level Boston Center
Thu 07:57:14 PM 44.4786 -73.5053 190° South 99 114 6,700 968 Climbing Boston Center
Thu 07:58:16 PM 44.4481 -73.5103 187° South 101 116 7,600 823 Climbing Boston Center
Thu 07:59:18 PM 44.4197 -73.5144 186° South 101 116 8,400 823 Climbing Boston Center
Thu 08:00:20 PM 44.3881 -73.5200 187° South 103 119 9,300 774 Climbing Boston Center
Thu 08:01:22 PM 44.3578 -73.5261 188° South 108 124 10,000 341 Climbing Boston Center
Thu 08:02:23 PM 44.3217 -73.5339 189° South 119 137 10,000  Level Boston Center
Thu 08:03:25 PM 44.2925 -73.5350 182° South 110 127 10,000  Level Boston Center
Thu 08:04:27 PM 44.2583 -73.5408 187° South 114 131 10,000  Level Boston Center
Thu 08:05:29 PM 44.2228 -73.5506 191° South 130 150 10,000  Level Boston Center
Thu 08:06:30 PM 44.1825 -73.5575 187° South 132 152 10,000  Level Boston Center
Thu 08:07:32 PM 44.1447 -73.5644 188° South 135 155 10,000  Level Boston Center
Thu 08:08:34 PM 44.1031 -73.5717 187° South 139 160 10,000  Level Boston Center
Thu 08:09:36 PM 44.0656 -73.5783 187° South 138 159 10,000  Level Boston Center
Thu 08:10:37 PM 44.0256 -73.5853 187° South 137 158 10,000  Level Boston Center
Thu 08:11:39 PM 43.9889 -73.5900 185° South 136 157 10,000  Level Boston Center
Thu 08:12:41 PM 43.9483 -73.5978 188° South 136 157 10,000  Level Boston Center
Thu 08:13:43 PM 43.9108 -73.6050 188° South 136 157 10,000  Level Boston Center
Thu 08:14:44 PM 43.8736 -73.6128 189° South 137 158 10,000  Level Boston Center
Thu 08:15:46 PM 43.8331 -73.6192 186° South 137 158 10,000  Level Boston Center
Thu 08:16:48 PM 43.7961 -73.6250 187° South 137 158 10,000  Level Boston Center
Thu 08:17:49 PM 43.7569 -73.6311 186° South 133 153 10,000  Level Boston Center
Thu 08:18:51 PM 43.7211 -73.6383 188° South 133 153 10,000  Level Boston Center
Thu 08:19:53 PM 43.6839 -73.6447 187° South 130 150 10,000  Level Boston Center
Thu 08:20:55 PM 43.6511 -73.6478 184° South 129 148 10,000  Level Boston Center
Thu 08:21:41 PM 43.6203 -73.6519 186° South 126 145 10,000  Level Boston Center
Thu 08:21:56 PM 43.6164 -73.6544 205° Southwest 129 148 10,000  Level Boston Center
Thu 08:23:06 PM 43.5719 -73.6589 184° South 128 147 10,000 48 Level Boston Center
Thu 08:24:00 PM 43.5383 -73.6672 190° South 128 147 10,100  Climbing Boston Center
Thu 08:25:01 PM 43.5036 -73.6747 189° South 128 147 10,000 -82 Descending Boston Center
Thu 08:25:13 PM 43.4961 -73.6744 178° South 128 147 10,000  Level Boston Center
Thu 08:26:03 PM 43.4689 -73.6803 189° South 128 147 10,000  Level Boston Center
Thu 08:26:14 PM 43.4611 -73.6775 165° South 125 144 10,000 98 Level Boston Center
Thu 08:27:04 PM 43.4347 -73.6847 191° South 125 144 10,100 98 Climbing Boston Center
Thu 08:27:15 PM 43.4278 -73.6839 175° South 124 143 10,100 -97 Level Boston Center
Thu 08:28:06 PM 43.3969 -73.6919 191° South 127 146 10,000 -425 Descending Boston Center
Thu 08:29:08 PM 43.3583 -73.6978 186° South 128 147 9,300 -779 Descending Boston Center
Thu 08:30:17 PM 43.3192 -73.7028 185° South 133 153 8,300 -837 Descending Boston Center
Thu 08:31:17 PM 43.2814 -73.7106 189° South 131 151 7,500 -887 Descending Boston Center
Thu 08:32:12 PM 43.2467 -73.7169 188° South 131 151 6,600 -923 Descending Boston Center
Thu 08:33:14 PM 43.2114 -73.7242 188° South 130 150 5,700 -927 Descending Boston Center
Thu 08:34:15 PM 43.1769 -73.7347 193° South 128 147 4,700 -927 Descending Boston Center
Thu 08:35:17 PM 43.1458 -73.7444 193° South 119 137 3,800 -780 Descending Boston Center
Thu 08:36:18 PM 43.1131 -73.7536 192° South 115 132 3,100 -390 Descending Boston Center
Thu 08:37:20 PM 43.0831 -73.7608 190° South 114 131 3,000 -49 Descending Boston Center
Thu 08:38:21 PM 43.0525 -73.7711 194° South 113 130 3,000  Level Boston Center
Thu 08:39:16 PM 43.0242 -73.7786 191° South 113 130 3,000  Level Boston Center
Thu 08:40:24 PM 42.9911 -73.7925 197° South 112 129 3,000 49 Level Boston Center
Thu 08:41:18 PM 42.9642 -73.8022 195° South 109 125 3,100 53 Climbing Boston Center
Thu 08:42:18 PM 42.9333 -73.8064 186° South 109 125 3,100 -149 Level Boston Center
Thu 08:43:19 PM 42.9044 -73.8111 187° South 108 124 2,800 -338 Descending Boston Center
Thu 08:43:29 PM 42.8997 -73.8117 185° South 106 122 2,700 -400 Descending Boston Center
Thu 08:44:19 PM 42.8725 -73.8092 176° South 113 130 2,400 -295 Descending Boston Center
Thu 08:44:30 PM 42.8681 -73.8100 188° South 108 124 2,400 -492 Level Boston Center
Thu 08:45:20 PM 42.8428 -73.8078 176° South 111 128 1,900 -689 Descending Boston Center
Thu 08:45:31 PM 42.8353 -73.8089 186° South 110 127 1,700 -590 Descending Boston Center
Thu 08:46:21 PM 42.8125 -73.8092 181° South 106 122 1,300 -484 Descending Boston Center
Thu 08:46:33 PM 42.8058 -73.8075 170° South 109 125 1,200 -600 Descending Boston Center
Thu 08:47:21 PM 42.7831 -73.8053 176° South 111 128 700 -590 Descending Boston Center
Thu 08:47:34 PM 42.7739 -73.8058 183° South 111 128 600 -320 Descending Boston Center
Thu 08:48:36 PM 42.7497 -73.8047 178° South 89 102 300 -290 Descending Boston Center
Thu 08:51:00 PM 42.7491 -73.8020 190° South  Level Estimated

Login

Don't have an account? Register now (free) for customized features, flight alerts, and more!